createdAt,value
2018-02-07T00:00:49.839Z,44.57
2018-02-07T00:03:18.086Z,51.37
2018-02-07T00:05:46.311Z,49.83
2018-02-07T00:08:14.617Z,44.17
2018-02-07T00:10:43.675Z,44.23
2018-02-07T00:13:11.908Z,43.00
2018-02-07T00:15:40.206Z,46.03
2018-02-07T00:18:08.689Z,44.50
2018-02-07T00:20:37.696Z,45.60
2018-02-07T00:23:05.943Z,45.43
2018-02-07T00:25:34.240Z,49.70
2018-02-07T00:28:02.490Z,43.23
2018-02-07T00:30:30.741Z,41.97
2018-02-07T00:32:59.783Z,42.97
2018-02-07T00:35:28.014Z,43.07
2018-02-07T00:37:56.280Z,47.50
2018-02-07T00:40:25.347Z,42.93
2018-02-07T00:42:53.570Z,45.83
2018-02-07T00:45:21.884Z,43.13
2018-02-07T00:47:50.144Z,43.80
2018-02-07T00:50:18.391Z,47.80
2018-02-07T00:52:46.834Z,44.50
2018-02-07T00:55:15.095Z,46.67
2018-02-07T00:57:43.326Z,42.90
2018-02-07T01:00:14.380Z,45.87
2018-02-07T01:02:42.640Z,41.30
2018-02-07T01:05:10.872Z,41.00
2018-02-07T01:07:39.182Z,49.27
2018-02-07T01:10:08.173Z,47.10
2018-02-07T01:12:37.164Z,52.63
2018-02-07T01:15:06.218Z,47.37
2018-02-07T01:17:34.437Z,45.17
2018-02-07T01:20:03.442Z,48.57
2018-02-07T01:22:31.723Z,45.63
2018-02-07T01:24:59.966Z,45.17
2018-02-07T01:27:29.017Z,47.20
2018-02-07T01:29:57.245Z,45.27
2018-02-07T01:32:26.252Z,42.60
2018-02-07T01:34:54.618Z,46.77
2018-02-07T01:37:22.869Z,40.80
2018-02-07T01:39:51.102Z,42.50
2018-02-07T01:42:19.493Z,40.97
2018-02-07T01:44:47.738Z,40.77
2018-02-07T01:47:15.990Z,48.00
2018-02-07T01:49:45.171Z,49.60
2018-02-07T01:52:13.418Z,41.20
2018-02-07T01:54:41.654Z,42.57
2018-02-07T01:57:09.945Z,42.47
2018-02-07T01:59:38.180Z,44.93
2018-02-07T02:02:06.416Z,49.33
2018-02-07T02:04:34.881Z,48.63
2018-02-07T02:07:03.125Z,48.33
2018-02-07T02:09:31.348Z,43.70
2018-02-07T02:11:59.650Z,47.23
2018-02-07T02:14:27.891Z,44.03
2018-02-07T02:16:56.129Z,43.30
2018-02-07T02:19:25.289Z,40.50
2018-02-07T02:21:53.506Z,44.73
2018-02-07T02:24:21.747Z,45.00
2018-02-07T02:26:50.003Z,44.87
2018-02-07T02:29:18.242Z,48.20
2018-02-07T02:31:46.505Z,43.80
2018-02-07T02:34:14.762Z,42.80
2018-02-07T02:36:43.817Z,46.00
2018-02-07T02:39:12.084Z,43.07
2018-02-07T02:41:40.309Z,50.10
2018-02-07T02:44:09.410Z,44.10
2018-02-07T02:46:37.642Z,41.23
2018-02-07T02:49:05.877Z,47.23
2018-02-07T02:51:34.137Z,41.57
2018-02-07T02:54:02.380Z,44.97
2018-02-07T02:56:30.654Z,40.97
2018-02-07T02:58:58.880Z,40.90
2018-02-07T03:01:27.305Z,39.30
2018-02-07T03:03:55.559Z,43.77
2018-02-07T03:06:23.792Z,41.77
2018-02-07T03:08:52.065Z,43.83
2018-02-07T03:11:21.124Z,41.60
2018-02-07T03:13:49.364Z,42.93
2018-02-07T03:16:17.602Z,43.63
2018-02-07T03:18:46.611Z,49.17
2018-02-07T03:21:14.893Z,44.37
2018-02-07T03:23:43.135Z,43.60
2018-02-07T03:26:11.363Z,46.13
2018-02-07T03:28:39.644Z,47.77
2018-02-07T03:31:07.884Z,41.10
2018-02-07T03:33:36.130Z,46.27
2018-02-07T03:36:04.381Z,45.83
2018-02-07T03:38:32.600Z,44.37
2018-02-07T03:41:01.827Z,42.70
2018-02-07T03:43:30.068Z,43.50
2018-02-07T03:45:59.078Z,42.87
2018-02-07T03:48:28.041Z,42.23
2018-02-07T03:50:56.269Z,51.67
2018-02-07T03:53:25.159Z,41.10
2018-02-07T03:55:53.435Z,48.83
2018-02-07T03:58:21.676Z,41.57
2018-02-07T04:00:50.004Z,47.83
2018-02-07T04:03:18.224Z,50.40
2018-02-07T04:05:46.458Z,45.80
2018-02-07T04:08:14.768Z,52.60
2018-02-07T04:10:43.776Z,48.97
2018-02-07T04:13:12.001Z,47.67
2018-02-07T04:15:40.267Z,43.30
2018-02-07T04:18:08.503Z,51.93
2018-02-07T04:20:36.765Z,42.80
2018-02-07T04:23:05.760Z,40.70
2018-02-07T04:25:34.799Z,48.50
2018-02-07T04:28:03.037Z,49.37
2018-02-07T04:30:31.378Z,42.67
2018-02-07T04:32:59.630Z,42.10
2018-02-07T04:35:27.878Z,46.13
2018-02-07T04:37:56.379Z,43.27
2018-02-07T04:40:24.620Z,54.70
2018-02-07T04:42:53.622Z,43.80
2018-02-07T04:45:21.927Z,41.47
2018-02-07T04:47:50.158Z,45.53
2018-02-07T04:50:19.159Z,39.50
2018-02-07T04:52:48.221Z,40.77
2018-02-07T04:55:16.474Z,57.50
2018-02-07T04:57:44.699Z,43.50
2018-02-07T05:00:13.727Z,44.33
2018-02-07T05:02:41.988Z,49.67
2018-02-07T05:05:10.266Z,47.93
2018-02-07T05:07:38.614Z,49.13
2018-02-07T05:10:07.609Z,45.97
2018-02-07T05:12:36.647Z,46.60
2018-02-07T05:15:04.944Z,44.53
2018-02-07T05:17:33.172Z,64.47
2018-02-07T05:20:01.445Z,44.10
2018-02-07T05:22:29.692Z,52.30
2018-02-07T05:24:57.993Z,58.37
2018-02-07T05:27:26.225Z,44.30
2018-02-07T05:29:54.462Z,61.27
2018-02-07T05:32:22.783Z,68.73
2018-02-07T05:34:51.029Z,91.03
2018-02-07T05:37:19.267Z,49.50
2018-02-07T05:39:47.568Z,64.27
2018-02-07T05:42:15.830Z,59.10
2018-02-07T05:44:44.075Z,59.40
2018-02-07T05:47:13.141Z,52.20
2018-02-07T05:49:41.367Z,56.23
2018-02-07T05:52:09.593Z,68.53
2018-02-07T05:54:37.902Z,55.60
2018-02-07T05:57:06.896Z,50.17
2018-02-07T05:59:35.179Z,45.17
2018-02-07T06:02:04.200Z,46.50
2018-02-07T06:04:32.514Z,45.70
2018-02-07T06:07:00.737Z,45.60
2018-02-07T06:09:28.981Z,52.57
2018-02-07T06:11:58.089Z,49.30
2018-02-07T06:14:26.313Z,59.17
2018-02-07T06:16:54.552Z,46.27
2018-02-07T06:19:23.055Z,43.23
2018-02-07T06:21:51.289Z,51.27
2018-02-07T06:24:19.511Z,43.07
2018-02-07T06:26:47.907Z,80.47
2018-02-07T06:29:16.137Z,60.30
2018-02-07T06:31:44.368Z,42.57
2018-02-07T06:34:12.660Z,67.07
2018-02-07T06:36:41.654Z,75.00
2018-02-07T06:39:10.649Z,54.07
2018-02-07T06:41:39.694Z,82.63
2018-02-07T06:44:07.935Z,92.23
2018-02-07T06:46:36.198Z,62.67
2018-02-07T06:49:05.250Z,45.57
2018-02-07T06:51:33.562Z,46.40
2018-02-07T06:54:02.594Z,50.10
2018-02-07T06:56:30.942Z,65.97
2018-02-07T06:58:59.966Z,123.90
2018-02-07T07:01:28.226Z,68.30
2018-02-07T07:03:56.564Z,43.40
2018-02-07T07:06:24.852Z,44.53
2018-02-07T07:08:53.171Z,120.50
2018-02-07T07:11:21.443Z,57.67
2018-02-07T07:13:49.691Z,44.67
2018-02-07T07:16:18.713Z,43.57
2018-02-07T07:18:46.994Z,45.03
2018-02-07T07:21:15.209Z,41.67
2018-02-07T07:23:43.519Z,45.60
2018-02-07T07:26:12.524Z,73.60
2018-02-07T07:28:40.774Z,47.37
2018-02-07T07:31:09.844Z,51.97
2018-02-07T07:33:38.130Z,53.90
2018-02-07T07:36:06.380Z,51.30
2018-02-07T07:38:34.733Z,50.83
2018-02-07T07:41:02.971Z,47.70
2018-02-07T07:43:31.975Z,57.87
2018-02-07T07:46:00.265Z,58.93
2018-02-07T07:48:28.600Z,46.87
2018-02-07T07:50:56.854Z,72.57
2018-02-07T07:53:25.861Z,64.33
2018-02-07T07:55:54.654Z,51.17
2018-02-07T07:58:22.911Z,63.40
2018-02-07T08:00:51.949Z,49.17
2018-02-07T08:03:21.028Z,66.20
2018-02-07T08:05:50.112Z,53.17
2018-02-07T08:08:18.366Z,44.93
2018-02-07T08:10:46.673Z,49.27
2018-02-07T08:13:15.002Z,61.57
2018-02-07T08:15:43.272Z,68.43
2018-02-07T08:18:11.678Z,58.47
2018-02-07T08:20:39.956Z,53.20
2018-02-07T08:23:08.206Z,51.57
2018-02-07T08:25:36.536Z,49.27
2018-02-07T08:28:04.789Z,62.07
2018-02-07T08:30:33.031Z,53.10
2018-02-07T08:33:01.474Z,47.00
2018-02-07T08:35:29.790Z,54.90
2018-02-07T08:37:58.804Z,48.13
2018-02-07T08:40:27.164Z,55.33
2018-02-07T08:42:55.402Z,63.00
2018-02-07T08:45:24.408Z,50.77
2018-02-07T08:47:52.678Z,48.60
2018-02-07T08:50:20.980Z,46.10
2018-02-07T08:52:49.250Z,47.90
2018-02-07T08:55:17.528Z,48.17
2018-02-07T08:57:45.832Z,47.60
2018-02-07T09:00:14.091Z,61.83
2018-02-07T09:02:42.340Z,55.23
2018-02-07T09:05:10.674Z,62.87
2018-02-07T09:07:38.931Z,68.53
2018-02-07T09:10:07.167Z,69.73
2018-02-07T09:12:35.504Z,62.30
2018-02-07T09:15:03.728Z,60.60
2018-02-07T09:17:32.018Z,52.40
2018-02-07T09:20:00.320Z,71.40
2018-02-07T09:22:28.576Z,60.53
2018-02-07T09:24:56.815Z,52.30
2018-02-07T09:27:25.107Z,52.67
2018-02-07T09:29:53.461Z,47.83
2018-02-07T09:32:21.706Z,50.87
2018-02-07T09:34:49.968Z,62.60
2018-02-07T09:37:18.264Z,60.33
2018-02-07T09:39:46.544Z,61.50
2018-02-07T09:42:15.640Z,58.90
2018-02-07T09:44:44.737Z,52.93
2018-02-07T09:47:13.010Z,62.50
2018-02-07T09:49:41.297Z,69.73
2018-02-07T09:52:10.355Z,51.63
2018-02-07T09:54:38.698Z,58.47
2018-02-07T09:57:06.946Z,53.37
2018-02-07T09:59:35.991Z,52.47
2018-02-07T10:02:04.330Z,57.90
2018-02-07T10:04:32.746Z,57.20
2018-02-07T10:07:01.134Z,64.40
2018-02-07T10:09:29.455Z,56.00
2018-02-07T10:11:58.484Z,61.50
2018-02-07T10:14:26.745Z,61.80
2018-02-07T10:16:55.035Z,53.40
2018-02-07T10:19:23.256Z,48.73
2018-02-07T10:21:51.501Z,54.87
2018-02-07T10:24:19.805Z,52.63
2018-02-07T10:26:48.132Z,62.33
2018-02-07T10:29:16.452Z,62.80
2018-02-07T10:31:44.986Z,57.50
2018-02-07T10:34:13.652Z,65.10
2018-02-07T10:36:41.924Z,52.47
2018-02-07T10:39:10.973Z,69.23
2018-02-07T10:41:39.218Z,66.20
2018-02-07T10:44:07.490Z,64.00
2018-02-07T10:46:35.787Z,62.03
2018-02-07T10:49:04.048Z,58.27
2018-02-07T10:51:32.272Z,58.03
2018-02-07T10:54:00.548Z,58.50
2018-02-07T10:56:29.638Z,64.40
2018-02-07T10:58:57.937Z,56.93
2018-02-07T11:01:26.965Z,49.17
2018-02-07T11:03:55.236Z,69.50
2018-02-07T11:06:23.554Z,68.67
2018-02-07T11:08:51.912Z,70.90
2018-02-07T11:11:21.055Z,69.50
2018-02-07T11:13:50.173Z,67.67
2018-02-07T11:16:18.468Z,49.30
2018-02-07T11:18:46.729Z,60.70
2018-02-07T11:21:15.045Z,49.33
2018-02-07T11:23:43.342Z,71.27
2018-02-07T11:26:11.688Z,72.23
2018-02-07T11:28:40.103Z,57.13
2018-02-07T11:31:09.186Z,69.07
2018-02-07T11:33:37.895Z,64.27
2018-02-07T11:36:07.204Z,58.40
2018-02-07T11:38:35.614Z,60.20
2018-02-07T11:41:03.942Z,54.07
2018-02-07T11:43:32.296Z,57.50
2018-02-07T11:46:00.702Z,66.90
2018-02-07T11:48:29.882Z,55.93
2018-02-07T11:50:58.293Z,55.53
2018-02-07T11:53:26.538Z,58.97
2018-02-07T11:55:54.786Z,53.83
2018-02-07T11:58:23.073Z,63.30
2018-02-07T12:00:51.382Z,65.93
2018-02-07T12:03:19.755Z,56.07
2018-02-07T12:05:48.844Z,58.40
2018-02-07T12:08:17.943Z,52.20
2018-02-07T12:10:46.231Z,53.17
2018-02-07T12:13:14.515Z,57.97
2018-02-07T12:15:42.817Z,62.70
2018-02-07T12:18:11.191Z,60.20
2018-02-07T12:20:39.500Z,59.97
2018-02-07T12:23:07.777Z,57.97
2018-02-07T12:25:36.135Z,58.17
2018-02-07T12:28:04.359Z,46.40
2018-02-07T12:30:33.381Z,55.20
2018-02-07T12:33:01.642Z,59.70
2018-02-07T12:35:29.878Z,59.43
2018-02-07T12:37:58.162Z,57.03
2018-02-07T12:40:26.590Z,59.13
2018-02-07T12:42:54.868Z,54.77
2018-02-07T12:45:23.189Z,60.30
2018-02-07T12:47:51.538Z,57.70
2018-02-07T12:50:19.796Z,57.67
2018-02-07T12:52:48.095Z,50.30
2018-02-07T12:55:16.449Z,61.73
2018-02-07T12:57:44.725Z,69.93
2018-02-07T13:00:13.050Z,59.67
2018-02-07T13:02:41.505Z,53.60
2018-02-07T13:05:10.792Z,53.60
2018-02-07T13:07:39.100Z,50.50
2018-02-07T13:10:07.389Z,49.03
2018-02-07T13:12:36.460Z,45.90
2018-02-07T13:15:04.758Z,54.53
2018-02-07T13:17:33.819Z,53.40
2018-02-07T13:20:02.120Z,51.20
2018-02-07T13:22:30.431Z,55.77
2018-02-07T13:24:59.571Z,50.63
2018-02-07T13:27:27.883Z,46.63
2018-02-07T13:29:57.112Z,56.10
2018-02-07T13:32:25.386Z,60.43
2018-02-07T13:34:53.699Z,56.73
2018-02-07T13:37:22.010Z,49.30
2018-02-07T13:39:51.130Z,60.17
2018-02-07T13:42:19.453Z,52.40
2018-02-07T13:44:47.704Z,51.13
2018-02-07T13:47:16.103Z,52.43
2018-02-07T13:49:44.386Z,46.23
2018-02-07T13:52:12.629Z,59.17
2018-02-07T13:54:40.937Z,57.90
2018-02-07T13:57:09.231Z,46.57
2018-02-07T13:59:37.495Z,47.90
2018-02-07T14:02:05.740Z,59.50
2018-02-07T14:04:34.043Z,52.23
2018-02-07T14:07:02.286Z,49.73
2018-02-07T14:09:30.544Z,55.60
2018-02-07T14:11:58.923Z,41.90
2018-02-07T14:14:27.177Z,45.30
2018-02-07T14:16:56.186Z,50.47
2018-02-07T14:19:25.354Z,49.30
2018-02-07T14:21:53.616Z,44.17
2018-02-07T14:24:21.889Z,46.57
2018-02-07T14:26:50.232Z,48.37
2018-02-07T14:29:18.560Z,44.57
2018-02-07T14:31:46.781Z,44.23
2018-02-07T14:34:15.061Z,45.83
2018-02-07T14:36:43.325Z,42.83
2018-02-07T14:39:11.618Z,41.70
2018-02-07T14:41:39.970Z,44.70
2018-02-07T14:44:08.257Z,45.60
2018-02-07T14:46:36.550Z,45.37
2018-02-07T14:49:04.799Z,50.83
2018-02-07T14:51:33.145Z,47.87
2018-02-07T14:54:02.218Z,55.40
2018-02-07T14:56:30.630Z,51.83
2018-02-07T14:58:58.941Z,56.50
2018-02-07T15:01:27.240Z,43.60
2018-02-07T15:03:55.554Z,50.20
2018-02-07T15:06:23.825Z,39.47
2018-02-07T15:08:52.160Z,50.30
2018-02-07T15:11:20.454Z,49.70
2018-02-07T15:13:48.705Z,44.20
2018-02-07T15:16:17.053Z,51.33
2018-02-07T15:18:45.332Z,45.07
2018-02-07T15:21:13.639Z,47.70
2018-02-07T15:23:41.948Z,47.17
2018-02-07T15:26:10.195Z,44.10
2018-02-07T15:28:38.524Z,40.10
2018-02-07T15:31:07.603Z,43.90
2018-02-07T15:33:35.862Z,57.10
2018-02-07T15:36:04.105Z,55.90
2018-02-07T15:38:32.459Z,55.40
2018-02-07T15:41:00.713Z,59.43
2018-02-07T15:43:29.882Z,57.37
2018-02-07T15:45:58.178Z,67.80
2018-02-07T15:48:26.457Z,65.10
2018-02-07T15:50:54.709Z,48.50
2018-02-07T15:53:23.105Z,54.30
2018-02-07T15:55:51.336Z,48.37
2018-02-07T15:58:19.614Z,63.00
2018-02-07T16:00:47.946Z,53.37
2018-02-07T16:03:16.970Z,62.57
2018-02-07T16:05:45.320Z,53.23
2018-02-07T16:08:14.337Z,52.27
2018-02-07T16:10:42.630Z,51.37
2018-02-07T16:13:11.037Z,46.60
2018-02-07T16:15:39.288Z,58.17
2018-02-07T16:18:07.517Z,48.07
2018-02-07T16:20:35.842Z,57.67
2018-02-07T16:23:04.079Z,51.60
2018-02-07T16:25:32.335Z,39.97
2018-02-07T16:28:00.640Z,37.17
2018-02-07T16:30:28.900Z,50.47
2018-02-07T16:32:57.915Z,40.40
2018-02-07T16:35:26.372Z,40.37
2018-02-07T16:37:55.391Z,37.70
2018-02-07T16:40:23.635Z,41.40
2018-02-07T16:42:51.964Z,41.30
2018-02-07T16:45:20.220Z,40.17
2018-02-07T16:47:48.484Z,41.13
2018-02-07T16:50:16.835Z,42.20
2018-02-07T16:52:45.126Z,40.17
2018-02-07T16:55:14.229Z,40.30
2018-02-07T16:57:42.529Z,40.50
2018-02-07T17:00:10.782Z,38.10
2018-02-07T17:02:39.059Z,42.60
2018-02-07T17:05:08.104Z,40.27
2018-02-07T17:07:36.452Z,40.20
2018-02-07T17:10:04.738Z,45.10
2018-02-07T17:12:33.007Z,42.97
2018-02-07T17:15:01.261Z,46.50
2018-02-07T17:17:29.484Z,44.43
2018-02-07T17:19:57.790Z,39.17
2018-02-07T17:22:26.886Z,44.17
2018-02-07T17:24:55.155Z,41.37
2018-02-07T17:27:24.275Z,44.40
2018-02-07T17:29:52.590Z,44.90
2018-02-07T17:32:20.865Z,40.93
2018-02-07T17:34:49.105Z,51.73
2018-02-07T17:37:17.463Z,43.90
2018-02-07T17:39:45.727Z,43.03
2018-02-07T17:42:13.975Z,42.33
2018-02-07T17:44:42.415Z,39.70
2018-02-07T17:47:10.659Z,42.63
2018-02-07T17:49:38.920Z,39.87
2018-02-07T17:52:07.250Z,45.00
2018-02-07T17:54:35.618Z,40.57
2018-02-07T17:57:03.956Z,40.43
2018-02-07T17:59:32.239Z,41.47
2018-02-07T18:02:00.649Z,52.93
2018-02-07T18:04:29.693Z,56.20
2018-02-07T18:06:57.961Z,64.37
2018-02-07T18:09:26.306Z,50.10
2018-02-07T18:11:54.549Z,53.60
2018-02-07T18:14:22.852Z,61.20
2018-02-07T18:16:51.797Z,47.90
2018-02-07T18:19:20.048Z,77.77
2018-02-07T18:21:48.360Z,58.80
2018-02-07T18:24:16.778Z,57.73
2018-02-07T18:26:45.058Z,54.53
2018-02-07T18:29:13.379Z,52.53
2018-02-07T18:31:41.615Z,58.03
2018-02-07T18:34:09.864Z,58.33
2018-02-07T18:36:39.029Z,56.80
2018-02-07T18:39:08.111Z,56.60
2018-02-07T18:41:36.375Z,60.93
2018-02-07T18:44:04.695Z,64.07
2018-02-07T18:46:33.467Z,57.83
2018-02-07T18:49:02.538Z,56.73
2018-02-07T18:51:30.881Z,48.43
2018-02-07T18:53:59.167Z,44.43
2018-02-07T18:56:27.447Z,59.40
2018-02-07T18:58:55.840Z,59.37
2018-02-07T19:01:24.161Z,61.60
2018-02-07T19:03:53.230Z,54.00
2018-02-07T19:06:21.578Z,56.53
2018-02-07T19:08:49.885Z,67.80
2018-02-07T19:11:18.176Z,76.93
2018-02-07T19:13:46.482Z,71.77
2018-02-07T19:16:14.752Z,72.47
2018-02-07T19:18:43.809Z,61.77
2018-02-07T19:21:12.070Z,68.30
2018-02-07T19:23:40.405Z,46.57
2018-02-07T19:26:09.703Z,45.10
2018-02-07T19:28:37.953Z,52.00
2018-02-07T19:31:06.290Z,52.60
2018-02-07T19:33:34.603Z,48.37
2018-02-07T19:36:02.928Z,53.73
2018-02-07T19:38:31.227Z,45.00
2018-02-07T19:40:59.527Z,51.43
2018-02-07T19:43:27.910Z,53.47
2018-02-07T19:45:56.155Z,42.97
2018-02-07T19:48:24.432Z,69.77
2018-02-07T19:50:52.734Z,66.60
2018-02-07T19:53:20.982Z,57.70
2018-02-07T19:55:49.300Z,71.30
2018-02-07T19:58:18.310Z,74.37
2018-02-07T20:00:47.364Z,65.70
2018-02-07T20:03:15.777Z,66.60
2018-02-07T20:05:44.102Z,73.07
2018-02-07T20:08:12.730Z,68.57
2018-02-07T20:10:41.986Z,64.93
2018-02-07T20:13:10.357Z,61.20
2018-02-07T20:15:38.643Z,64.10
2018-02-07T20:18:07.019Z,68.60
2018-02-07T20:20:35.468Z,65.50
2018-02-07T20:23:03.738Z,73.87
2018-02-07T20:25:32.068Z,72.23
2018-02-07T20:28:00.345Z,76.53
2018-02-07T20:30:28.615Z,65.30
2018-02-07T20:32:56.936Z,78.67
2018-02-07T20:35:25.575Z,65.10
2018-02-07T20:37:53.935Z,81.93
2018-02-07T20:40:22.253Z,69.00
2018-02-07T20:42:50.546Z,71.67
2018-02-07T20:45:19.961Z,65.50
2018-02-07T20:47:48.377Z,68.50
2018-02-07T20:50:16.631Z,66.70
2018-02-07T20:52:44.980Z,74.70
2018-02-07T20:55:14.016Z,65.93
2018-02-07T20:57:42.278Z,72.53
2018-02-07T21:00:10.507Z,74.87
2018-02-07T21:02:38.912Z,73.30
2018-02-07T21:05:07.212Z,77.63
2018-02-07T21:07:35.456Z,67.03
2018-02-07T21:10:03.788Z,77.43
2018-02-07T21:12:32.019Z,78.07
2018-02-07T21:15:00.382Z,79.33
2018-02-07T21:17:29.597Z,69.07
2018-02-07T21:19:57.915Z,61.40
2018-02-07T21:22:26.142Z,71.63
2018-02-07T21:24:54.431Z,67.40
2018-02-07T21:27:22.694Z,69.93
2018-02-07T21:29:51.003Z,66.47
2018-02-07T21:32:19.249Z,70.03
2018-02-07T21:34:47.566Z,68.00
2018-02-07T21:37:15.898Z,71.90
2018-02-07T21:39:44.981Z,58.93
2018-02-07T21:42:13.272Z,68.63
2018-02-07T21:44:41.614Z,62.13
2018-02-07T21:47:09.921Z,67.43
2018-02-07T21:49:38.578Z,67.37
2018-02-07T21:52:06.872Z,66.10
2018-02-07T21:54:35.928Z,69.70
2018-02-07T21:57:04.357Z,68.40
2018-02-07T21:59:32.650Z,60.30
2018-02-07T22:02:00.986Z,65.63
2018-02-07T22:04:30.106Z,74.27
2018-02-07T22:06:58.361Z,63.10
2018-02-07T22:09:27.425Z,66.87
2018-02-07T22:11:55.747Z,58.47
2018-02-07T22:14:24.944Z,69.07
2018-02-07T22:16:54.035Z,70.83
2018-02-07T22:19:23.148Z,87.60
2018-02-07T22:21:51.419Z,66.47
2018-02-07T22:24:19.734Z,68.73
2018-02-07T22:26:48.065Z,75.67
2018-02-07T22:29:16.329Z,74.43
2018-02-07T22:31:45.346Z,71.13
2018-02-07T22:34:13.597Z,65.03
2018-02-07T22:36:42.636Z,59.67
2018-02-07T22:39:10.944Z,60.10
2018-02-07T22:41:39.194Z,73.57
2018-02-07T22:44:07.450Z,67.70
2018-02-07T22:46:35.870Z,60.10
2018-02-07T22:49:04.127Z,61.80
2018-02-07T22:51:32.384Z,81.40
2018-02-07T22:54:00.697Z,80.30
2018-02-07T22:56:29.013Z,66.30
2018-02-07T22:58:57.284Z,73.30
2018-02-07T23:01:26.308Z,74.17
2018-02-07T23:03:54.585Z,68.67
2018-02-07T23:06:23.078Z,57.43
2018-02-07T23:08:51.362Z,80.43
2018-02-07T23:11:19.613Z,75.87
2018-02-07T23:13:47.951Z,87.00
2018-02-07T23:16:16.990Z,66.10
2018-02-07T23:18:45.259Z,58.63
2018-02-07T23:21:13.523Z,59.03
2018-02-07T23:23:41.861Z,84.37
2018-02-07T23:26:10.085Z,58.43
2018-02-07T23:28:38.336Z,92.37
2018-02-07T23:31:07.468Z,52.00
2018-02-07T23:33:35.847Z,80.87
2018-02-07T23:36:04.120Z,59.77
2018-02-07T23:38:32.495Z,56.10
2018-02-07T23:41:00.799Z,72.33
2018-02-07T23:43:29.026Z,69.80
2018-02-07T23:45:57.371Z,84.23
2018-02-07T23:48:25.652Z,55.40
2018-02-07T23:50:53.894Z,76.03
2018-02-07T23:53:22.220Z,67.20
2018-02-07T23:55:51.220Z,72.10
2018-02-07T23:58:20.367Z,80.63
